sensor_id;sensor_type;location;lat;lon;timestamp;P1;durP1;ratioP1;P2;durP2;ratioP2
3299;SDS011;1662;49.310;8.134;2023-04-29T00:02:11;3.03;;;2.83;;
3299;SDS011;1662;49.310;8.134;2023-04-29T00:04:36;2.90;;;2.80;;
3299;SDS011;1662;49.310;8.134;2023-04-29T00:07:02;2.80;;;2.60;;
3299;SDS011;1662;49.310;8.134;2023-04-29T00:09:30;2.80;;;2.70;;
3299;SDS011;1662;49.310;8.134;2023-04-29T00:11:55;3.30;;;3.20;;
3299;SDS011;1662;49.310;8.134;2023-04-29T00:14:21;2.60;;;2.50;;
3299;SDS011;1662;49.310;8.134;2023-04-29T00:16:47;2.60;;;2.50;;
3299;SDS011;1662;49.310;8.134;2023-04-29T00:19:12;2.87;;;2.67;;
3299;SDS011;1662;49.310;8.134;2023-04-29T00:21:42;4.30;;;2.50;;
3299;SDS011;1662;49.310;8.134;2023-04-29T00:24:07;3.33;;;3.13;;
3299;SDS011;1662;49.310;8.134;2023-04-29T00:26:33;2.93;;;2.83;;
3299;SDS011;1662;49.310;8.134;2023-04-29T00:28:59;2.60;;;2.50;;
3299;SDS011;1662;49.310;8.134;2023-04-29T00:31:25;3.37;;;3.17;;
3299;SDS011;1662;49.310;8.134;2023-04-29T00:33:50;3.03;;;2.83;;
3299;SDS011;1662;49.310;8.134;2023-04-29T00:36:16;8.00;;;2.93;;
3299;SDS011;1662;49.310;8.134;2023-04-29T00:38:41;3.07;;;2.97;;
3299;SDS011;1662;49.310;8.134;2023-04-29T00:41:07;2.97;;;2.77;;
3299;SDS011;1662;49.310;8.134;2023-04-29T00:43:33;2.70;;;2.50;;
3299;SDS011;1662;49.310;8.134;2023-04-29T00:45:58;2.50;;;2.40;;
3299;SDS011;1662;49.310;8.134;2023-04-29T00:48:24;2.70;;;2.60;;
3299;SDS011;1662;49.310;8.134;2023-04-29T00:50:50;4.83;;;2.40;;
3299;SDS011;1662;49.310;8.134;2023-04-29T00:53:17;7.77;;;2.53;;
3299;SDS011;1662;49.310;8.134;2023-04-29T00:55:42;2.63;;;2.53;;
3299;SDS011;1662;49.310;8.134;2023-04-29T00:58:10;2.37;;;2.17;;
3299;SDS011;1662;49.310;8.134;2023-04-29T01:00:36;2.60;;;2.50;;
3299;SDS011;1662;49.310;8.134;2023-04-29T01:03:03;2.60;;;2.50;;
3299;SDS011;1662;49.310;8.134;2023-04-29T01:05:29;2.37;;;2.27;;
3299;SDS011;1662;49.310;8.134;2023-04-29T01:10:48;5.07;;;2.60;;
3299;SDS011;1662;49.310;8.134;2023-04-29T01:13:29;2.53;;;2.43;;
3299;SDS011;1662;49.310;8.134;2023-04-29T01:16:03;3.17;;;2.90;;
3299;SDS011;1662;49.310;8.134;2023-04-29T01:18:32;2.80;;;2.70;;
3299;SDS011;1662;49.310;8.134;2023-04-29T01:21:03;2.63;;;2.53;;
3299;SDS011;1662;49.310;8.134;2023-04-29T01:23:29;2.70;;;2.50;;
3299;SDS011;1662;49.310;8.134;2023-04-29T01:25:55;2.57;;;2.47;;
3299;SDS011;1662;49.310;8.134;2023-04-29T01:36:43;3.10;;;3.00;;
3299;SDS011;1662;49.310;8.134;2023-04-29T01:44:29;4.07;;;3.07;;
3299;SDS011;1662;49.310;8.134;2023-04-29T01:46:58;3.03;;;2.70;;
3299;SDS011;1662;49.310;8.134;2023-04-29T01:49:25;3.00;;;2.80;;
3299;SDS011;1662;49.310;8.134;2023-04-29T01:51:51;3.50;;;2.40;;
3299;SDS011;1662;49.310;8.134;2023-04-29T01:54:17;2.40;;;2.30;;
3299;SDS011;1662;49.310;8.134;2023-04-29T01:56:48;2.40;;;2.30;;
3299;SDS011;1662;49.310;8.134;2023-04-29T01:59:15;5.13;;;2.40;;
3299;SDS011;1662;49.310;8.134;2023-04-29T02:01:41;2.97;;;2.77;;
3299;SDS011;1662;49.310;8.134;2023-04-29T02:04:09;2.77;;;2.40;;
3299;SDS011;1662;49.310;8.134;2023-04-29T02:06:35;2.90;;;2.70;;
3299;SDS011;1662;49.310;8.134;2023-04-29T02:09:04;3.87;;;3.57;;
3299;SDS011;1662;49.310;8.134;2023-04-29T02:11:30;2.40;;;2.30;;
3299;SDS011;1662;49.310;8.134;2023-04-29T02:13:55;2.63;;;2.50;;
3299;SDS011;1662;49.310;8.134;2023-04-29T02:16:22;3.10;;;3.00;;
3299;SDS011;1662;49.310;8.134;2023-04-29T02:18:48;2.20;;;2.10;;
3299;SDS011;1662;49.310;8.134;2023-04-29T02:21:14;2.57;;;2.37;;
3299;SDS011;1662;49.310;8.134;2023-04-29T02:23:40;1.87;;;1.87;;
3299;SDS011;1662;49.310;8.134;2023-04-29T02:26:08;2.53;;;2.30;;
3299;SDS011;1662;49.310;8.134;2023-04-29T02:28:34;3.00;;;2.70;;
3299;SDS011;1662;49.310;8.134;2023-04-29T02:31:00;5.67;;;2.07;;
3299;SDS011;1662;49.310;8.134;2023-04-29T02:33:26;5.60;;;3.07;;
3299;SDS011;1662;49.310;8.134;2023-04-29T02:35:52;2.77;;;2.57;;
3299;SDS011;1662;49.310;8.134;2023-04-29T02:38:20;2.43;;;2.33;;
3299;SDS011;1662;49.310;8.134;2023-04-29T02:40:46;2.67;;;2.57;;
3299;SDS011;1662;49.310;8.134;2023-04-29T02:43:11;4.40;;;2.57;;
3299;SDS011;1662;49.310;8.134;2023-04-29T02:45:37;3.13;;;2.30;;
3299;SDS011;1662;49.310;8.134;2023-04-29T02:48:04;2.30;;;2.20;;
3299;SDS011;1662;49.310;8.134;2023-04-29T02:50:30;2.43;;;2.33;;
3299;SDS011;1662;49.310;8.134;2023-04-29T02:52:56;2.57;;;2.47;;
3299;SDS011;1662;49.310;8.134;2023-04-29T02:55:22;2.90;;;2.70;;
3299;SDS011;1662;49.310;8.134;2023-04-29T02:57:48;2.40;;;2.20;;
3299;SDS011;1662;49.310;8.134;2023-04-29T03:00:13;2.37;;;1.90;;
3299;SDS011;1662;49.310;8.134;2023-04-29T03:02:39;2.20;;;2.10;;
3299;SDS011;1662;49.310;8.134;2023-04-29T03:05:05;3.17;;;2.30;;
3299;SDS011;1662;49.310;8.134;2023-04-29T03:07:31;2.13;;;1.93;;
3299;SDS011;1662;49.310;8.134;2023-04-29T03:09:56;2.60;;;2.50;;
3299;SDS011;1662;49.310;8.134;2023-04-29T03:12:22;2.50;;;2.30;;
3299;SDS011;1662;49.310;8.134;2023-04-29T03:14:48;1.77;;;1.67;;
3299;SDS011;1662;49.310;8.134;2023-04-29T03:17:16;2.60;;;2.37;;
3299;SDS011;1662;49.310;8.134;2023-04-29T03:19:42;2.97;;;2.20;;
3299;SDS011;1662;49.310;8.134;2023-04-29T03:22:08;1.90;;;1.80;;
3299;SDS011;1662;49.310;8.134;2023-04-29T03:24:35;2.97;;;2.10;;
3299;SDS011;1662;49.310;8.134;2023-04-29T03:27:04;2.50;;;2.40;;
3299;SDS011;1662;49.310;8.134;2023-04-29T03:29:30;2.20;;;1.90;;
3299;SDS011;1662;49.310;8.134;2023-04-29T03:31:55;2.30;;;2.20;;
3299;SDS011;1662;49.310;8.134;2023-04-29T03:34:21;1.90;;;1.80;;
3299;SDS011;1662;49.310;8.134;2023-04-29T03:36:47;2.10;;;2.00;;
3299;SDS011;1662;49.310;8.134;2023-04-29T03:39:13;2.10;;;2.00;;
3299;SDS011;1662;49.310;8.134;2023-04-29T03:41:38;2.20;;;2.10;;
3299;SDS011;1662;49.310;8.134;2023-04-29T03:44:06;2.13;;;1.90;;
3299;SDS011;1662;49.310;8.134;2023-04-29T03:46:32;3.33;;;2.23;;
3299;SDS011;1662;49.310;8.134;2023-04-29T03:48:57;2.20;;;2.10;;
3299;SDS011;1662;49.310;8.134;2023-04-29T03:51:26;4.73;;;2.40;;
3299;SDS011;1662;49.310;8.134;2023-04-29T03:53:55;2.60;;;2.40;;
3299;SDS011;1662;49.310;8.134;2023-04-29T03:56:21;3.43;;;2.60;;
3299;SDS011;1662;49.310;8.134;2023-04-29T03:58:49;2.30;;;2.20;;
3299;SDS011;1662;49.310;8.134;2023-04-29T04:01:17;2.33;;;2.13;;
3299;SDS011;1662;49.310;8.134;2023-04-29T04:03:43;2.63;;;2.53;;
3299;SDS011;1662;49.310;8.134;2023-04-29T04:06:11;2.67;;;2.57;;
3299;SDS011;1662;49.310;8.134;2023-04-29T04:08:37;4.43;;;2.20;;
3299;SDS011;1662;49.310;8.134;2023-04-29T04:11:05;2.57;;;2.47;;
3299;SDS011;1662;49.310;8.134;2023-04-29T04:13:31;2.97;;;2.70;;
3299;SDS011;1662;49.310;8.134;2023-04-29T04:15:56;3.70;;;2.60;;
3299;SDS011;1662;49.310;8.134;2023-04-29T04:18:22;2.30;;;2.20;;
3299;SDS011;1662;49.310;8.134;2023-04-29T04:20:48;2.60;;;2.50;;
3299;SDS011;1662;49.310;8.134;2023-04-29T04:23:13;3.00;;;2.70;;
3299;SDS011;1662;49.310;8.134;2023-04-29T04:25:48;2.20;;;2.00;;
3299;SDS011;1662;49.310;8.134;2023-04-29T04:28:14;2.60;;;2.50;;
3299;SDS011;1662;49.310;8.134;2023-04-29T04:30:40;3.07;;;2.77;;
3299;SDS011;1662;49.310;8.134;2023-04-29T04:33:09;2.60;;;2.50;;
3299;SDS011;1662;49.310;8.134;2023-04-29T04:35:35;2.70;;;2.60;;
3299;SDS011;1662;49.310;8.134;2023-04-29T04:38:00;2.80;;;2.70;;
3299;SDS011;1662;49.310;8.134;2023-04-29T04:40:26;2.63;;;2.43;;
3299;SDS011;1662;49.310;8.134;2023-04-29T04:42:52;2.57;;;2.47;;
3299;SDS011;1662;49.310;8.134;2023-04-29T04:45:17;3.00;;;2.80;;
3299;SDS011;1662;49.310;8.134;2023-04-29T04:47:43;3.33;;;3.13;;
3299;SDS011;1662;49.310;8.134;2023-04-29T04:50:08;3.40;;;3.20;;
3299;SDS011;1662;49.310;8.134;2023-04-29T04:52:34;2.63;;;2.43;;
3299;SDS011;1662;49.310;8.134;2023-04-29T04:54:59;2.97;;;2.87;;
3299;SDS011;1662;49.310;8.134;2023-04-29T04:57:25;3.07;;;2.97;;
3299;SDS011;1662;49.310;8.134;2023-04-29T04:59:51;2.93;;;2.83;;
3299;SDS011;1662;49.310;8.134;2023-04-29T05:02:17;3.33;;;3.03;;
3299;SDS011;1662;49.310;8.134;2023-04-29T05:04:42;3.13;;;3.00;;
3299;SDS011;1662;49.310;8.134;2023-04-29T05:07:08;2.77;;;2.67;;
3299;SDS011;1662;49.310;8.134;2023-04-29T05:09:34;3.73;;;3.17;;
3299;SDS011;1662;49.310;8.134;2023-04-29T05:12:00;3.60;;;3.33;;
3299;SDS011;1662;49.310;8.134;2023-04-29T05:14:26;4.20;;;3.63;;
3299;SDS011;1662;49.310;8.134;2023-04-29T05:16:52;4.03;;;3.73;;
3299;SDS011;1662;49.310;8.134;2023-04-29T05:19:18;4.23;;;3.90;;
3299;SDS011;1662;49.310;8.134;2023-04-29T05:21:44;4.73;;;3.70;;
3299;SDS011;1662;49.310;8.134;2023-04-29T05:24:09;3.87;;;3.57;;
3299;SDS011;1662;49.310;8.134;2023-04-29T05:26:35;3.47;;;3.27;;
3299;SDS011;1662;49.310;8.134;2023-04-29T05:29:01;3.33;;;3.13;;
3299;SDS011;1662;49.310;8.134;2023-04-29T05:31:26;4.03;;;3.70;;
3299;SDS011;1662;49.310;8.134;2023-04-29T05:33:52;3.23;;;3.03;;
3299;SDS011;1662;49.310;8.134;2023-04-29T05:36:18;3.60;;;3.40;;
3299;SDS011;1662;49.310;8.134;2023-04-29T05:38:43;5.53;;;4.27;;
3299;SDS011;1662;49.310;8.134;2023-04-29T05:41:09;3.37;;;3.23;;
3299;SDS011;1662;49.310;8.134;2023-04-29T05:43:35;4.67;;;3.93;;
3299;SDS011;1662;49.310;8.134;2023-04-29T05:46:00;3.57;;;3.37;;
3299;SDS011;1662;49.310;8.134;2023-04-29T05:48:26;3.80;;;3.60;;
3299;SDS011;1662;49.310;8.134;2023-04-29T05:50:53;4.10;;;3.90;;
3299;SDS011;1662;49.310;8.134;2023-04-29T05:53:19;4.83;;;4.53;;
3299;SDS011;1662;49.310;8.134;2023-04-29T05:55:45;5.53;;;4.97;;
3299;SDS011;1662;49.310;8.134;2023-04-29T05:58:11;5.03;;;4.53;;
3299;SDS011;1662;49.310;8.134;2023-04-29T06:00:37;4.60;;;4.30;;
3299;SDS011;1662;49.310;8.134;2023-04-29T06:03:03;5.00;;;4.60;;
3299;SDS011;1662;49.310;8.134;2023-04-29T06:05:28;5.07;;;4.67;;
3299;SDS011;1662;49.310;8.134;2023-04-29T06:07:54;6.07;;;5.47;;
3299;SDS011;1662;49.310;8.134;2023-04-29T06:10:20;4.47;;;4.07;;
3299;SDS011;1662;49.310;8.134;2023-04-29T06:12:45;5.40;;;4.90;;
3299;SDS011;1662;49.310;8.134;2023-04-29T06:15:13;5.03;;;4.50;;
3299;SDS011;1662;49.310;8.134;2023-04-29T06:17:38;4.57;;;4.17;;
3299;SDS011;1662;49.310;8.134;2023-04-29T06:20:04;4.27;;;4.07;;
3299;SDS011;1662;49.310;8.134;2023-04-29T06:22:30;4.70;;;4.30;;
3299;SDS011;1662;49.310;8.134;2023-04-29T06:24:56;3.80;;;3.60;;
3299;SDS011;1662;49.310;8.134;2023-04-29T06:27:21;3.50;;;3.30;;
3299;SDS011;1662;49.310;8.134;2023-04-29T06:29:47;4.23;;;3.47;;
3299;SDS011;1662;49.310;8.134;2023-04-29T06:32:13;4.17;;;3.97;;
3299;SDS011;1662;49.310;8.134;2023-04-29T06:34:38;4.10;;;3.80;;
3299;SDS011;1662;49.310;8.134;2023-04-29T06:37:04;3.40;;;3.30;;
3299;SDS011;1662;49.310;8.134;2023-04-29T06:39:30;3.60;;;3.37;;
3299;SDS011;1662;49.310;8.134;2023-04-29T06:41:55;4.27;;;3.77;;
3299;SDS011;1662;49.310;8.134;2023-04-29T06:44:22;2.80;;;2.70;;
3299;SDS011;1662;49.310;8.134;2023-04-29T06:46:48;5.30;;;4.40;;
3299;SDS011;1662;49.310;8.134;2023-04-29T06:49:14;3.80;;;3.50;;
3299;SDS011;1662;49.310;8.134;2023-04-29T06:51:40;4.63;;;4.23;;
3299;SDS011;1662;49.310;8.134;2023-04-29T06:54:06;3.57;;;3.33;;
3299;SDS011;1662;49.310;8.134;2023-04-29T06:56:32;4.43;;;4.03;;
3299;SDS011;1662;49.310;8.134;2023-04-29T06:58:58;3.63;;;3.40;;
3299;SDS011;1662;49.310;8.134;2023-04-29T07:01:23;4.03;;;3.77;;
3299;SDS011;1662;49.310;8.134;2023-04-29T07:03:49;4.70;;;4.27;;
3299;SDS011;1662;49.310;8.134;2023-04-29T07:06:15;5.50;;;5.03;;
3299;SDS011;1662;49.310;8.134;2023-04-29T07:08:40;5.60;;;5.10;;
3299;SDS011;1662;49.310;8.134;2023-04-29T07:11:06;4.57;;;4.20;;
3299;SDS011;1662;49.310;8.134;2023-04-29T07:13:33;7.50;;;4.97;;
3299;SDS011;1662;49.310;8.134;2023-04-29T07:15:59;6.00;;;5.40;;
3299;SDS011;1662;49.310;8.134;2023-04-29T07:18:24;10.93;;;6.10;;
3299;SDS011;1662;49.310;8.134;2023-04-29T07:20:50;22.07;;;5.43;;
3299;SDS011;1662;49.310;8.134;2023-04-29T07:23:19;5.63;;;4.97;;
3299;SDS011;1662;49.310;8.134;2023-04-29T07:25:45;6.00;;;5.50;;
3299;SDS011;1662;49.310;8.134;2023-04-29T07:28:11;7.83;;;5.63;;
3299;SDS011;1662;49.310;8.134;2023-04-29T07:30:36;6.43;;;5.83;;
3299;SDS011;1662;49.310;8.134;2023-04-29T07:33:02;5.80;;;5.30;;
3299;SDS011;1662;49.310;8.134;2023-04-29T07:35:28;5.80;;;5.27;;
3299;SDS011;1662;49.310;8.134;2023-04-29T07:37:54;5.97;;;5.00;;
3299;SDS011;1662;49.310;8.134;2023-04-29T07:40:20;5.87;;;5.33;;
3299;SDS011;1662;49.310;8.134;2023-04-29T07:42:49;5.67;;;5.10;;
3299;SDS011;1662;49.310;8.134;2023-04-29T07:45:15;6.17;;;5.47;;
3299;SDS011;1662;49.310;8.134;2023-04-29T07:47:41;5.60;;;5.10;;
3299;SDS011;1662;49.310;8.134;2023-04-29T07:50:06;4.97;;;4.57;;
3299;SDS011;1662;49.310;8.134;2023-04-29T07:52:33;4.70;;;4.40;;
3299;SDS011;1662;49.310;8.134;2023-04-29T07:55:01;6.03;;;5.53;;
3299;SDS011;1662;49.310;8.134;2023-04-29T07:57:27;5.13;;;4.57;;
3299;SDS011;1662;49.310;8.134;2023-04-29T07:59:53;5.50;;;4.90;;
3299;SDS011;1662;49.310;8.134;2023-04-29T08:02:18;5.00;;;4.60;;
3299;SDS011;1662;49.310;8.134;2023-04-29T08:04:44;6.23;;;5.63;;
3299;SDS011;1662;49.310;8.134;2023-04-29T08:07:10;4.50;;;3.93;;
3299;SDS011;1662;49.310;8.134;2023-04-29T08:09:36;5.63;;;5.13;;
3299;SDS011;1662;49.310;8.134;2023-04-29T08:12:05;5.60;;;4.70;;
3299;SDS011;1662;49.310;8.134;2023-04-29T08:14:30;4.93;;;4.50;;
3299;SDS011;1662;49.310;8.134;2023-04-29T08:16:56;4.90;;;4.50;;
3299;SDS011;1662;49.310;8.134;2023-04-29T08:19:21;4.70;;;4.03;;
3299;SDS011;1662;49.310;8.134;2023-04-29T08:21:47;7.67;;;6.93;;
3299;SDS011;1662;49.310;8.134;2023-04-29T08:24:13;7.27;;;6.60;;
3299;SDS011;1662;49.310;8.134;2023-04-29T08:26:38;8.33;;;7.57;;
3299;SDS011;1662;49.310;8.134;2023-04-29T08:29:06;9.60;;;7.63;;
3299;SDS011;1662;49.310;8.134;2023-04-29T08:31:33;9.77;;;8.70;;
3299;SDS011;1662;49.310;8.134;2023-04-29T08:33:58;9.57;;;8.67;;
3299;SDS011;1662;49.310;8.134;2023-04-29T08:36:24;10.13;;;9.07;;
3299;SDS011;1662;49.310;8.134;2023-04-29T08:38:51;11.50;;;10.27;;
3299;SDS011;1662;49.310;8.134;2023-04-29T08:41:17;12.23;;;10.93;;
3299;SDS011;1662;49.310;8.134;2023-04-29T08:43:43;12.10;;;11.00;;
3299;SDS011;1662;49.310;8.134;2023-04-29T08:46:11;14.10;;;11.43;;
3299;SDS011;1662;49.310;8.134;2023-04-29T08:48:37;15.30;;;12.90;;
3299;SDS011;1662;49.310;8.134;2023-04-29T08:51:06;13.27;;;10.90;;
3299;SDS011;1662;49.310;8.134;2023-04-29T08:53:32;13.63;;;12.00;;
3299;SDS011;1662;49.310;8.134;2023-04-29T08:56:02;14.43;;;11.30;;
3299;SDS011;1662;49.310;8.134;2023-04-29T08:58:36;12.87;;;11.13;;
3299;SDS011;1662;49.310;8.134;2023-04-29T09:01:06;12.20;;;10.50;;
3299;SDS011;1662;49.310;8.134;2023-04-29T09:03:35;18.23;;;12.30;;
3299;SDS011;1662;49.310;8.134;2023-04-29T09:06:07;13.30;;;10.87;;
3299;SDS011;1662;49.310;8.134;2023-04-29T09:08:38;12.10;;;10.10;;
3299;SDS011;1662;49.310;8.134;2023-04-29T09:11:04;9.50;;;8.50;;
3299;SDS011;1662;49.310;8.134;2023-04-29T09:13:34;9.90;;;8.73;;
3299;SDS011;1662;49.310;8.134;2023-04-29T09:16:00;10.97;;;8.50;;
3299;SDS011;1662;49.310;8.134;2023-04-29T09:21:20;8.50;;;7.80;;
3299;SDS011;1662;49.310;8.134;2023-04-29T09:23:50;9.83;;;6.60;;
3299;SDS011;1662;49.310;8.134;2023-04-29T09:26:18;6.43;;;5.73;;
3299;SDS011;1662;49.310;8.134;2023-04-29T09:28:44;6.73;;;6.13;;
3299;SDS011;1662;49.310;8.134;2023-04-29T09:31:12;12.00;;;5.50;;
3299;SDS011;1662;49.310;8.134;2023-04-29T09:39:02;9.43;;;6.03;;
3299;SDS011;1662;49.310;8.134;2023-04-29T09:41:36;6.07;;;5.40;;
3299;SDS011;1662;49.310;8.134;2023-04-29T09:44:27;6.67;;;5.87;;
3299;SDS011;1662;49.310;8.134;2023-04-29T09:46:58;5.60;;;5.10;;
3299;SDS011;1662;49.310;8.134;2023-04-29T09:49:27;6.30;;;5.80;;
3299;SDS011;1662;49.310;8.134;2023-04-29T09:54:23;6.43;;;5.20;;
3299;SDS011;1662;49.310;8.134;2023-04-29T09:56:51;5.40;;;5.00;;
3299;SDS011;1662;49.310;8.134;2023-04-29T09:59:20;7.20;;;5.50;;
3299;SDS011;1662;49.310;8.134;2023-04-29T10:01:48;5.67;;;5.10;;
3299;SDS011;1662;49.310;8.134;2023-04-29T10:04:18;5.90;;;5.40;;
3299;SDS011;1662;49.310;8.134;2023-04-29T10:06:47;10.30;;;5.10;;
3299;SDS011;1662;49.310;8.134;2023-04-29T10:09:14;5.80;;;5.40;;
3299;SDS011;1662;49.310;8.134;2023-04-29T10:11:48;6.77;;;6.17;;
3299;SDS011;1662;49.310;8.134;2023-04-29T10:14:15;6.13;;;5.53;;
3299;SDS011;1662;49.310;8.134;2023-04-29T10:16:53;7.80;;;6.60;;
3299;SDS011;1662;49.310;8.134;2023-04-29T10:19:34;8.63;;;5.70;;
3299;SDS011;1662;49.310;8.134;2023-04-29T10:22:04;6.73;;;5.87;;
3299;SDS011;1662;49.310;8.134;2023-04-29T10:24:37;6.23;;;5.63;;
3299;SDS011;1662;49.310;8.134;2023-04-29T10:27:07;6.13;;;5.57;;
3299;SDS011;1662;49.310;8.134;2023-04-29T10:29:37;5.50;;;5.00;;
3299;SDS011;1662;49.310;8.134;2023-04-29T10:32:08;7.90;;;6.47;;
3299;SDS011;1662;49.310;8.134;2023-04-29T10:34:37;5.57;;;5.07;;
3299;SDS011;1662;49.310;8.134;2023-04-29T10:37:13;7.00;;;4.80;;
3299;SDS011;1662;49.310;8.134;2023-04-29T10:42:27;5.17;;;3.63;;
3299;SDS011;1662;49.310;8.134;2023-04-29T10:53:12;11.90;;;6.50;;
3299;SDS011;1662;49.310;8.134;2023-04-29T10:55:40;8.03;;;5.23;;
3299;SDS011;1662;49.310;8.134;2023-04-29T11:01:03;6.10;;;5.50;;
3299;SDS011;1662;49.310;8.134;2023-04-29T11:06:25;5.07;;;4.67;;
3299;SDS011;1662;49.310;8.134;2023-04-29T11:09:07;4.97;;;4.67;;
3299;SDS011;1662;49.310;8.134;2023-04-29T11:11:39;7.10;;;6.50;;
3299;SDS011;1662;49.310;8.134;2023-04-29T11:14:07;8.77;;;6.13;;
3299;SDS011;1662;49.310;8.134;2023-04-29T11:16:35;4.93;;;4.63;;
3299;SDS011;1662;49.310;8.134;2023-04-29T11:19:04;5.60;;;5.10;;
3299;SDS011;1662;49.310;8.134;2023-04-29T11:21:32;7.50;;;5.77;;
3299;SDS011;1662;49.310;8.134;2023-04-29T11:23:59;6.17;;;5.63;;
3299;SDS011;1662;49.310;8.134;2023-04-29T11:26:25;5.97;;;5.37;;
3299;SDS011;1662;49.310;8.134;2023-04-29T11:28:51;5.17;;;4.80;;
3299;SDS011;1662;49.310;8.134;2023-04-29T11:31:17;4.80;;;4.40;;
3299;SDS011;1662;49.310;8.134;2023-04-29T11:33:43;5.00;;;4.60;;
3299;SDS011;1662;49.310;8.134;2023-04-29T11:36:11;5.67;;;5.03;;
3299;SDS011;1662;49.310;8.134;2023-04-29T11:38:38;5.93;;;5.33;;
3299;SDS011;1662;49.310;8.134;2023-04-29T11:41:07;4.17;;;3.87;;
3299;SDS011;1662;49.310;8.134;2023-04-29T11:43:35;5.17;;;4.77;;
3299;SDS011;1662;49.310;8.134;2023-04-29T11:46:10;5.30;;;4.60;;
3299;SDS011;1662;49.310;8.134;2023-04-29T11:48:45;4.83;;;4.23;;
3299;SDS011;1662;49.310;8.134;2023-04-29T11:51:12;5.40;;;5.00;;
3299;SDS011;1662;49.310;8.134;2023-04-29T11:53:39;5.63;;;5.13;;
3299;SDS011;1662;49.310;8.134;2023-04-29T11:56:04;5.53;;;5.00;;
3299;SDS011;1662;49.310;8.134;2023-04-29T11:58:30;4.93;;;4.40;;
3299;SDS011;1662;49.310;8.134;2023-04-29T12:00:59;4.87;;;4.57;;
3299;SDS011;1662;49.310;8.134;2023-04-29T12:03:28;5.30;;;4.80;;
3299;SDS011;1662;49.310;8.134;2023-04-29T12:05:55;4.60;;;4.00;;
3299;SDS011;1662;49.310;8.134;2023-04-29T12:08:22;3.93;;;3.70;;
3299;SDS011;1662;49.310;8.134;2023-04-29T12:10:48;4.47;;;4.17;;
3299;SDS011;1662;49.310;8.134;2023-04-29T12:13:18;5.03;;;4.73;;
3299;SDS011;1662;49.310;8.134;2023-04-29T12:15:44;5.10;;;4.70;;
3299;SDS011;1662;49.310;8.134;2023-04-29T12:18:11;7.23;;;6.53;;
3299;SDS011;1662;49.310;8.134;2023-04-29T12:20:40;7.13;;;6.53;;
3299;SDS011;1662;49.310;8.134;2023-04-29T12:23:19;6.00;;;5.50;;
3299;SDS011;1662;49.310;8.134;2023-04-29T12:25:53;6.07;;;5.57;;
3299;SDS011;1662;49.310;8.134;2023-04-29T12:28:20;5.70;;;5.30;;
3299;SDS011;1662;49.310;8.134;2023-04-29T12:30:48;6.13;;;5.60;;
3299;SDS011;1662;49.310;8.134;2023-04-29T12:33:25;5.63;;;5.20;;
3299;SDS011;1662;49.310;8.134;2023-04-29T12:35:53;6.47;;;6.00;;
3299;SDS011;1662;49.310;8.134;2023-04-29T12:38:21;6.17;;;5.67;;
3299;SDS011;1662;49.310;8.134;2023-04-29T12:40:48;5.60;;;5.20;;
3299;SDS011;1662;49.310;8.134;2023-04-29T12:43:24;5.30;;;4.90;;
3299;SDS011;1662;49.310;8.134;2023-04-29T12:45:59;5.83;;;5.40;;
3299;SDS011;1662;49.310;8.134;2023-04-29T12:48:28;5.43;;;5.10;;
3299;SDS011;1662;49.310;8.134;2023-04-29T12:50:56;6.57;;;5.97;;
3299;SDS011;1662;49.310;8.134;2023-04-29T12:53:25;5.70;;;5.30;;
3299;SDS011;1662;49.310;8.134;2023-04-29T12:55:54;5.20;;;4.90;;
3299;SDS011;1662;49.310;8.134;2023-04-29T12:58:20;5.60;;;5.20;;
3299;SDS011;1662;49.310;8.134;2023-04-29T13:00:46;5.47;;;5.07;;
3299;SDS011;1662;49.310;8.134;2023-04-29T13:03:12;4.57;;;4.27;;
3299;SDS011;1662;49.310;8.134;2023-04-29T13:05:40;5.63;;;5.13;;
3299;SDS011;1662;49.310;8.134;2023-04-29T13:08:11;5.30;;;5.00;;
3299;SDS011;1662;49.310;8.134;2023-04-29T13:10:37;6.10;;;5.50;;
3299;SDS011;1662;49.310;8.134;2023-04-29T13:13:02;4.97;;;4.60;;
3299;SDS011;1662;49.310;8.134;2023-04-29T13:15:28;5.47;;;4.97;;
3299;SDS011;1662;49.310;8.134;2023-04-29T13:17:54;5.00;;;4.60;;
3299;SDS011;1662;49.310;8.134;2023-04-29T13:20:20;5.23;;;4.93;;
3299;SDS011;1662;49.310;8.134;2023-04-29T13:22:45;4.67;;;4.33;;
3299;SDS011;1662;49.310;8.134;2023-04-29T13:25:15;6.30;;;5.00;;
3299;SDS011;1662;49.310;8.134;2023-04-29T13:27:41;5.17;;;4.77;;
3299;SDS011;1662;49.310;8.134;2023-04-29T13:30:08;8.20;;;4.80;;
3299;SDS011;1662;49.310;8.134;2023-04-29T13:32:34;4.57;;;4.27;;
3299;SDS011;1662;49.310;8.134;2023-04-29T13:35:01;4.00;;;3.80;;
3299;SDS011;1662;49.310;8.134;2023-04-29T13:37:27;5.30;;;5.00;;
3299;SDS011;1662;49.310;8.134;2023-04-29T13:39:53;5.00;;;4.60;;
3299;SDS011;1662;49.310;8.134;2023-04-29T13:42:18;4.70;;;4.40;;
3299;SDS011;1662;49.310;8.134;2023-04-29T13:44:44;6.50;;;5.30;;
3299;SDS011;1662;49.310;8.134;2023-04-29T13:47:10;5.20;;;4.90;;
3299;SDS011;1662;49.310;8.134;2023-04-29T13:49:39;5.50;;;5.10;;
3299;SDS011;1662;49.310;8.134;2023-04-29T13:52:05;6.80;;;6.10;;
3299;SDS011;1662;49.310;8.134;2023-04-29T13:54:34;5.77;;;5.27;;
3299;SDS011;1662;49.310;8.134;2023-04-29T13:57:00;5.80;;;5.30;;
3299;SDS011;1662;49.310;8.134;2023-04-29T13:59:32;5.83;;;5.03;;
3299;SDS011;1662;49.310;8.134;2023-04-29T14:01:59;6.37;;;5.87;;
3299;SDS011;1662;49.310;8.134;2023-04-29T14:04:25;5.93;;;5.40;;
3299;SDS011;1662;49.310;8.134;2023-04-29T14:06:51;5.90;;;5.40;;
3299;SDS011;1662;49.310;8.134;2023-04-29T14:09:20;6.50;;;5.90;;
3299;SDS011;1662;49.310;8.134;2023-04-29T14:11:48;5.87;;;5.47;;
3299;SDS011;1662;49.310;8.134;2023-04-29T14:14:14;6.10;;;5.70;;
3299;SDS011;1662;49.310;8.134;2023-04-29T14:16:40;6.27;;;5.83;;
3299;SDS011;1662;49.310;8.134;2023-04-29T14:19:06;6.10;;;5.57;;
3299;SDS011;1662;49.310;8.134;2023-04-29T14:21:32;6.20;;;5.70;;
3299;SDS011;1662;49.310;8.134;2023-04-29T14:23:58;6.30;;;5.80;;
3299;SDS011;1662;49.310;8.134;2023-04-29T14:26:26;5.80;;;5.30;;
3299;SDS011;1662;49.310;8.134;2023-04-29T14:28:52;6.23;;;5.73;;
3299;SDS011;1662;49.310;8.134;2023-04-29T14:31:24;6.10;;;5.60;;
3299;SDS011;1662;49.310;8.134;2023-04-29T14:33:54;5.40;;;5.00;;
3299;SDS011;1662;49.310;8.134;2023-04-29T14:36:20;5.47;;;5.00;;
3299;SDS011;1662;49.310;8.134;2023-04-29T14:38:46;6.00;;;5.50;;
3299;SDS011;1662;49.310;8.134;2023-04-29T14:41:12;6.43;;;5.83;;
3299;SDS011;1662;49.310;8.134;2023-04-29T14:43:37;5.50;;;5.20;;
3299;SDS011;1662;49.310;8.134;2023-04-29T14:46:03;6.40;;;5.43;;
3299;SDS011;1662;49.310;8.134;2023-04-29T14:48:30;5.80;;;5.30;;
3299;SDS011;1662;49.310;8.134;2023-04-29T14:50:56;4.97;;;4.67;;
3299;SDS011;1662;49.310;8.134;2023-04-29T14:53:23;6.00;;;5.50;;
3299;SDS011;1662;49.310;8.134;2023-04-29T14:55:49;5.33;;;4.93;;
3299;SDS011;1662;49.310;8.134;2023-04-29T14:58:15;5.73;;;5.23;;
3299;SDS011;1662;49.310;8.134;2023-04-29T15:00:40;4.37;;;4.13;;
3299;SDS011;1662;49.310;8.134;2023-04-29T15:03:06;5.20;;;4.80;;
3299;SDS011;1662;49.310;8.134;2023-04-29T15:05:32;3.83;;;3.60;;
3299;SDS011;1662;49.310;8.134;2023-04-29T15:07:58;4.40;;;4.20;;
3299;SDS011;1662;49.310;8.134;2023-04-29T15:10:25;5.13;;;4.50;;
3299;SDS011;1662;49.310;8.134;2023-04-29T15:12:52;4.27;;;4.07;;
3299;SDS011;1662;49.310;8.134;2023-04-29T15:15:18;4.27;;;3.97;;
3299;SDS011;1662;49.310;8.134;2023-04-29T15:17:44;3.93;;;3.73;;
3299;SDS011;1662;49.310;8.134;2023-04-29T15:20:11;4.03;;;3.83;;
3299;SDS011;1662;49.310;8.134;2023-04-29T15:22:39;4.00;;;3.80;;
3299;SDS011;1662;49.310;8.134;2023-04-29T15:25:07;3.57;;;3.37;;
3299;SDS011;1662;49.310;8.134;2023-04-29T15:27:33;4.43;;;4.03;;
3299;SDS011;1662;49.310;8.134;2023-04-29T15:30:00;4.00;;;3.80;;
3299;SDS011;1662;49.310;8.134;2023-04-29T15:32:26;3.40;;;3.30;;
3299;SDS011;1662;49.310;8.134;2023-04-29T15:34:59;3.63;;;3.40;;
3299;SDS011;1662;49.310;8.134;2023-04-29T15:37:29;3.73;;;3.53;;
3299;SDS011;1662;49.310;8.134;2023-04-29T15:39:55;3.10;;;3.00;;
3299;SDS011;1662;49.310;8.134;2023-04-29T15:42:24;3.53;;;3.43;;
3299;SDS011;1662;49.310;8.134;2023-04-29T15:44:50;3.90;;;3.70;;
3299;SDS011;1662;49.310;8.134;2023-04-29T15:47:22;3.23;;;3.10;;
3299;SDS011;1662;49.310;8.134;2023-04-29T15:49:48;3.53;;;3.33;;
3299;SDS011;1662;49.310;8.134;2023-04-29T15:52:15;3.93;;;3.73;;
3299;SDS011;1662;49.310;8.134;2023-04-29T15:54:41;4.87;;;4.57;;
3299;SDS011;1662;49.310;8.134;2023-04-29T15:57:09;4.20;;;3.90;;
3299;SDS011;1662;49.310;8.134;2023-04-29T15:59:35;3.70;;;3.50;;